Time,TemperatureF,DewpointF,PressureIn,WindDirection,WindDirectionDegrees,WindSpeedMPH,WindSpeedGustMPH,Humidity,HourlyPrecipIn,Conditions,Clouds,dailyrainin,SolarRadiationWatts/m^2,SoftwareType,DateUTC
2014-03-01 00:02:00,12.0,6.0,-100.00,SW,223,3.0,7.0,77,0.00,,,0.06,0.000000,,2014-03-01 06:02:00,
2014-03-01 00:11:00,12.0,6.0,-100.00,SW,223,3.0,7.0,77,0.00,,,0.06,0.000000,,2014-03-01 06:11:00,
2014-03-01 00:42:00,11.0,5.0,-100.00,SW,219,3.0,9.0,75,0.00,,,-99.99,0.000000,,2014-03-01 06:42:00,
2014-03-01 00:52:00,11.0,5.0,-100.00,SW,219,3.0,9.0,75,0.00,,,-99.99,0.000000,,2014-03-01 06:52:00,
2014-03-01 01:02:00,11.0,5.0,-100.00,SW,219,3.0,9.0,75,0.00,,,-99.99,0.000000,,2014-03-01 07:02:00,
2014-03-01 01:11:00,11.0,5.0,-100.00,SW,219,3.0,9.0,75,0.00,,,-99.99,0.000000,,2014-03-01 07:11:00,
2014-03-01 01:42:00,11.0,4.0,-100.00,SW,228,5.0,11.0,72,0.00,,,0.06,0.000000,,2014-03-01 07:42:00,
2014-03-01 01:52:00,11.0,4.0,-100.00,SW,228,5.0,11.0,72,0.00,,,0.06,0.000000,,2014-03-01 07:52:00,
2014-03-01 02:02:00,11.0,4.0,-100.00,SW,228,5.0,11.0,72,0.00,,,0.06,0.000000,,2014-03-01 08:02:00,
2014-03-01 02:12:00,11.0,4.0,-100.00,SW,228,5.0,11.0,72,0.00,,,0.06,0.000000,,2014-03-01 08:12:00,
2014-03-01 02:42:00,9.0,0.0,-100.00,SW,229,4.0,13.0,65,0.00,,,0.06,0.000000,,2014-03-01 08:42:00,
2014-03-01 02:52:00,9.0,0.0,-100.00,SW,229,4.0,13.0,65,0.00,,,0.06,0.000000,,2014-03-01 08:52:00,
2014-03-01 03:02:00,9.0,0.0,-100.00,SW,229,4.0,13.0,65,0.00,,,0.06,0.000000,,2014-03-01 09:02:00,
2014-03-01 03:12:00,9.0,0.0,-100.00,SW,229,4.0,13.0,65,0.00,,,0.06,0.000000,,2014-03-01 09:12:00,
2014-03-01 03:43:00,8.0,-2.0,-100.00,SW,232,2.0,8.0,64,0.00,,,0.06,0.000000,,2014-03-01 09:43:00,
2014-03-01 03:53:00,8.0,-2.0,-100.00,SW,232,2.0,8.0,64,0.00,,,0.06,0.000000,,2014-03-01 09:53:00,
2014-03-01 04:03:00,8.0,-2.0,-100.00,SW,232,2.0,8.0,64,0.00,,,0.06,0.000000,,2014-03-01 10:03:00,
2014-03-01 04:13:00,8.0,-2.0,-100.00,SW,232,2.0,8.0,64,0.00,,,0.06,0.000000,,2014-03-01 10:13:00,
2014-03-01 04:43:00,7.0,-3.0,-100.00,WSW,237,3.0,9.0,64,0.00,,,0.06,0.000000,,2014-03-01 10:43:00,
2014-03-01 04:52:00,7.0,-3.0,-100.00,WSW,237,3.0,9.0,64,0.00,,,0.06,0.000000,,2014-03-01 10:52:00,
2014-03-01 05:02:00,7.0,-3.0,-100.00,WSW,237,3.0,9.0,64,0.00,,,0.06,0.000000,,2014-03-01 11:02:00,
2014-03-01 05:12:00,7.0,-3.0,-100.00,WSW,237,3.0,9.0,64,0.00,,,0.06,0.000000,,2014-03-01 11:12:00,
2014-03-01 05:43:00,6.0,-4.0,-100.00,WSW,237,2.0,7.0,64,0.00,,,0.06,0.000000,,2014-03-01 11:43:00,
2014-03-01 05:52:00,6.0,-4.0,-100.00,WSW,237,2.0,7.0,64,0.00,,,0.06,0.000000,,2014-03-01 11:52:00,
2014-03-01 06:02:00,6.0,-4.0,-100.00,WSW,237,2.0,7.0,64,0.00,,,0.06,0.000000,,2014-03-01 12:02:00,
2014-03-01 06:12:00,6.0,-4.0,-100.00,WSW,237,2.0,7.0,64,0.00,,,0.06,0.000000,,2014-03-01 12:12:00,
2014-03-01 06:42:00,4.0,-6.0,-100.00,SW,230,3.0,8.0,62,0.00,,,0.06,0.000000,,2014-03-01 12:42:00,
2014-03-01 06:53:00,4.0,-6.0,-100.00,SW,230,3.0,8.0,62,0.00,,,0.06,0.000000,,2014-03-01 12:53:00,
2014-03-01 07:02:00,4.0,-6.0,-100.00,SW,230,3.0,8.0,62,0.00,,,0.06,0.000000,,2014-03-01 13:02:00,
2014-03-01 07:11:00,4.0,-6.0,-100.00,SW,230,3.0,8.0,62,0.00,,,0.06,0.000000,,2014-03-01 13:11:00,
2014-03-01 07:42:00,4.0,-6.0,-100.00,SW,229,3.0,8.0,62,0.00,,,0.06,9.000000,,2014-03-01 13:42:00,
2014-03-01 07:52:00,4.0,-6.0,-100.00,SW,229,3.0,8.0,62,0.00,,,0.06,9.000000,,2014-03-01 13:52:00,
2014-03-01 08:02:00,4.0,-6.0,-100.00,SW,229,3.0,8.0,62,0.00,,,0.06,9.000000,,2014-03-01 14:02:00,
2014-03-01 08:11:00,4.0,-6.0,-100.00,SW,229,3.0,8.0,62,0.00,,,0.06,9.000000,,2014-03-01 14:11:00,
2014-03-01 08:42:00,6.0,-6.0,-100.00,SW,218,3.0,9.0,57,0.00,,,0.06,80.000000,,2014-03-01 14:42:00,
2014-03-01 08:53:00,6.0,-6.0,-100.00,SW,218,3.0,9.0,57,0.00,,,0.06,80.000000,,2014-03-01 14:53:00,
2014-03-01 09:02:00,6.0,-6.0,-100.00,SW,218,3.0,9.0,57,0.00,,,0.06,80.000000,,2014-03-01 15:02:00,
2014-03-01 09:11:00,6.0,-6.0,-100.00,SW,218,3.0,9.0,57,0.00,,,0.06,80.000000,,2014-03-01 15:11:00,
2014-03-01 09:44:00,7.0,-6.0,-100.00,SW,229,4.0,9.0,54,0.00,,,0.06,128.000000,,2014-03-01 15:44:00,
2014-03-01 09:54:00,7.0,-6.0,-100.00,SW,229,4.0,9.0,54,0.00,,,0.06,128.000000,,2014-03-01 15:54:00,
2014-03-01 10:03:00,7.0,-6.0,-100.00,SW,229,4.0,9.0,54,0.00,,,0.06,128.000000,,2014-03-01 16:03:00,
2014-03-01 10:13:00,7.0,-6.0,-100.00,SW,229,4.0,9.0,54,0.00,,,0.06,128.000000,,2014-03-01 16:13:00,
2014-03-01 10:43:00,7.0,-6.0,-100.00,SW,220,5.0,9.0,53,0.00,,,0.06,108.000000,,2014-03-01 16:43:00,
2014-03-01 10:53:00,7.0,-6.0,-100.00,SW,220,5.0,9.0,53,0.00,,,0.06,108.000000,,2014-03-01 16:53:00,
2014-03-01 11:02:00,7.0,-6.0,-100.00,SW,220,5.0,9.0,53,0.00,,,0.06,108.000000,,2014-03-01 17:02:00,
2014-03-01 11:12:00,7.0,-6.0,-100.00,SW,220,5.0,9.0,53,0.00,,,0.06,108.000000,,2014-03-01 17:12:00,
2014-03-01 11:43:00,8.0,-6.0,-100.00,SW,223,4.0,9.0,51,0.00,,,0.06,178.000000,,2014-03-01 17:43:00,
2014-03-01 11:53:00,8.0,-6.0,-100.00,SW,223,4.0,9.0,51,0.00,,,0.06,178.000000,,2014-03-01 17:53:00,
2014-03-01 12:02:00,8.0,-6.0,-100.00,SW,223,4.0,9.0,51,0.00,,,0.06,178.000000,,2014-03-01 18:02:00,
2014-03-01 12:12:00,8.0,-6.0,-100.00,SW,223,4.0,9.0,51,0.00,,,0.06,178.000000,,2014-03-01 18:12:00,
2014-03-01 12:52:00,7.0,-4.0,-100.00,SSW,203,5.0,13.0,59,0.00,,,0.06,140.000000,,2014-03-01 18:52:00,
2014-03-01 13:02:00,7.0,-4.0,-100.00,SSW,203,5.0,13.0,59,0.00,,,0.06,140.000000,,2014-03-01 19:02:00,
2014-03-01 13:11:00,7.0,-4.0,-100.00,SSW,203,5.0,13.0,59,0.00,,,0.06,140.000000,,2014-03-01 19:11:00,
2014-03-01 13:42:00,9.0,-2.0,-100.00,SSW,205,5.0,11.0,59,0.00,,,0.06,281.000000,,2014-03-01 19:42:00,
2014-03-01 13:52:00,9.0,-2.0,-100.00,SSW,205,5.0,11.0,59,0.00,,,0.06,281.000000,,2014-03-01 19:52:00,
2014-03-01 14:02:00,9.0,-2.0,-100.00,SSW,205,5.0,11.0,59,0.00,,,0.06,281.000000,,2014-03-01 20:02:00,
2014-03-01 14:12:00,9.0,-2.0,-100.00,SSW,205,5.0,11.0,59,0.00,,,0.06,281.000000,,2014-03-01 20:12:00,
2014-03-01 14:42:00,7.0,-7.0,-100.00,SSW,207,7.0,14.0,52,0.00,,,0.06,339.000000,,2014-03-01 20:42:00,
2014-03-01 14:52:00,7.0,-7.0,-100.00,SSW,207,7.0,14.0,52,0.00,,,0.06,339.000000,,2014-03-01 20:52:00,
2014-03-01 15:02:00,7.0,-7.0,-100.00,SSW,207,7.0,14.0,52,0.00,,,0.06,339.000000,,2014-03-01 21:02:00,
2014-03-01 15:11:00,7.0,-7.0,-100.00,SSW,207,7.0,14.0,52,0.00,,,0.06,339.000000,,2014-03-01 21:11:00,
2014-03-01 15:43:00,5.0,-5.0,-100.00,SW,227,5.0,12.0,62,0.00,,,0.04,177.000000,,2014-03-01 21:43:00,
2014-03-01 15:54:00,5.0,-5.0,-100.00,SW,227,5.0,12.0,62,0.00,,,0.04,177.000000,,2014-03-01 21:54:00,
2014-03-01 16:03:00,5.0,-5.0,-100.00,SW,227,5.0,12.0,62,0.00,,,0.04,177.000000,,2014-03-01 22:03:00,
2014-03-01 16:13:00,5.0,-5.0,-100.00,SW,227,5.0,12.0,62,0.00,,,0.04,177.000000,,2014-03-01 22:13:00,
2014-03-01 16:43:00,4.0,-11.0,-100.00,SW,224,5.0,11.0,49,0.00,,,0.02,110.000000,,2014-03-01 22:43:00,
2014-03-01 16:52:00,4.0,-11.0,-100.00,SW,224,5.0,11.0,49,0.00,,,0.02,110.000000,,2014-03-01 22:52:00,
2014-03-01 17:02:00,4.0,-11.0,-100.00,SW,224,5.0,11.0,49,0.00,,,0.02,110.000000,,2014-03-01 23:02:00,
2014-03-01 17:12:00,4.0,-11.0,-100.00,SW,224,5.0,11.0,49,0.00,,,0.02,110.000000,,2014-03-01 23:12:00,
2014-03-01 17:42:00,3.0,-11.0,-100.00,SSW,206,6.0,12.0,51,0.00,,,0.01,70.000000,,2014-03-01 23:42:00,
2014-03-01 17:53:00,3.0,-11.0,-100.00,SSW,206,6.0,12.0,51,0.00,,,0.01,70.000000,,2014-03-01 23:53:00,
2014-03-01 18:02:00,3.0,-11.0,-100.00,SSW,206,6.0,12.0,51,0.00,,,0.01,70.000000,,2014-03-02 00:02:00,
2014-03-01 18:12:00,3.0,-11.0,-100.00,SSW,206,6.0,12.0,51,0.00,,,0.01,70.000000,,2014-03-02 00:12:00,
2014-03-01 18:42:00,2.0,-12.0,-100.00,SW,214,6.0,13.0,52,0.00,,,0.00,6.000000,,2014-03-02 00:42:00,
2014-03-01 18:52:00,2.0,-12.0,-100.00,SW,214,6.0,13.0,52,0.00,,,0.00,6.000000,,2014-03-02 00:52:00,
2014-03-01 19:02:00,2.0,-12.0,-100.00,SW,214,6.0,13.0,52,0.00,,,0.00,6.000000,,2014-03-02 01:02:00,
2014-03-01 19:12:00,2.0,-12.0,-100.00,SW,214,6.0,13.0,52,0.00,,,0.00,6.000000,,2014-03-02 01:12:00,
2014-03-01 19:42:00,1.0,-13.0,-100.00,SSW,213,5.0,14.0,51,0.00,,,0.00,0.000000,,2014-03-02 01:42:00,
2014-03-01 19:52:00,1.0,-13.0,-100.00,SSW,213,5.0,14.0,51,0.00,,,0.00,0.000000,,2014-03-02 01:52:00,
2014-03-01 20:02:00,1.0,-13.0,-100.00,SSW,213,5.0,14.0,51,0.00,,,0.00,0.000000,,2014-03-02 02:02:00,
2014-03-01 20:12:00,1.0,-13.0,-100.00,SSW,213,5.0,14.0,51,0.00,,,0.00,0.000000,,2014-03-02 02:12:00,
2014-03-01 20:42:00,0.0,-14.0,-100.00,SW,217,5.0,13.0,50,0.00,,,0.00,0.000000,,2014-03-02 02:42:00,
2014-03-01 20:52:00,0.0,-14.0,-100.00,SW,217,5.0,13.0,50,0.00,,,0.00,0.000000,,2014-03-02 02:52:00,
2014-03-01 21:02:00,0.0,-14.0,-100.00,SW,217,5.0,13.0,50,0.00,,,0.00,0.000000,,2014-03-02 03:02:00,
2014-03-01 21:12:00,0.0,-14.0,-100.00,SW,217,5.0,13.0,50,0.00,,,0.00,0.000000,,2014-03-02 03:12:00,
2014-03-01 21:43:00,0.0,-15.0,-100.00,SW,219,5.0,13.0,48,0.00,,,0.00,0.000000,,2014-03-02 03:43:00,
2014-03-01 21:53:00,0.0,-15.0,-100.00,SW,219,5.0,13.0,48,0.00,,,0.00,0.000000,,2014-03-02 03:53:00,
2014-03-01 22:02:00,-999.0,-99.9,-100.00,SW,219,5.0,13.0,-999,0.00,,,0.00,0.000000,,2014-03-02 04:02:00,
2014-03-01 22:13:00,0.0,-15.0,-100.00,SW,219,5.0,13.0,48,0.00,,,0.00,0.000000,,2014-03-02 04:13:00,
2014-03-01 22:43:00,-1.0,-16.0,-100.00,SW,220,5.0,13.0,48,0.00,,,0.00,0.000000,,2014-03-02 04:43:00,
2014-03-01 22:53:00,-1.0,-16.0,-100.00,SW,220,5.0,13.0,48,0.00,,,0.00,0.000000,,2014-03-02 04:53:00,
2014-03-01 23:02:00,-1.0,-16.0,-100.00,SW,220,5.0,13.0,48,0.00,,,0.00,0.000000,,2014-03-02 05:02:00,
2014-03-01 23:12:00,-1.0,-16.0,-100.00,SW,220,5.0,13.0,48,0.00,,,0.00,0.000000,,2014-03-02 05:12:00,
2014-03-01 23:43:00,-3.0,-17.0,-100.00,SW,220,2.0,8.0,49,0.00,,,0.00,0.000000,,2014-03-02 05:43:00,
2014-03-01 23:53:00,-3.0,-17.0,-100.00,SW,220,2.0,8.0,49,0.00,,,0.00,0.000000,,2014-03-02 05:53:00,